sensor_id;sensor_type;location;lat;lon;timestamp;temperature;humidity
981;DHT22;479;53.514;9.994;2023-07-13T00:01:04;17.00;99.90
981;DHT22;479;53.514;9.994;2023-07-13T00:03:32;17.10;99.90
981;DHT22;479;53.514;9.994;2023-07-13T00:06:01;17.10;99.90
981;DHT22;479;53.514;9.994;2023-07-13T00:08:31;17.00;99.90
981;DHT22;479;53.514;9.994;2023-07-13T00:10:59;17.00;99.90
981;DHT22;479;53.514;9.994;2023-07-13T00:13:26;17.00;99.90
981;DHT22;479;53.514;9.994;2023-07-13T00:15:53;17.00;99.90
981;DHT22;479;53.514;9.994;2023-07-13T00:18:20;17.00;99.90
981;DHT22;479;53.514;9.994;2023-07-13T00:20:47;16.90;99.90
981;DHT22;479;53.514;9.994;2023-07-13T00:23:14;16.90;99.90
981;DHT22;479;53.514;9.994;2023-07-13T00:25:44;16.90;99.90
981;DHT22;479;53.514;9.994;2023-07-13T00:28:11;16.90;99.90
981;DHT22;479;53.514;9.994;2023-07-13T00:30:37;16.80;99.90
981;DHT22;479;53.514;9.994;2023-07-13T00:33:04;16.80;99.90
981;DHT22;479;53.514;9.994;2023-07-13T00:35:31;16.80;99.90
981;DHT22;479;53.514;9.994;2023-07-13T00:37:58;16.70;99.90
981;DHT22;479;53.514;9.994;2023-07-13T00:40:25;16.60;99.90
981;DHT22;479;53.514;9.994;2023-07-13T00:42:57;16.60;99.90
981;DHT22;479;53.514;9.994;2023-07-13T00:48:31;16.60;99.90
981;DHT22;479;53.514;9.994;2023-07-13T00:50:59;16.50;99.90
981;DHT22;479;53.514;9.994;2023-07-13T00:53:28;16.40;99.90
981;DHT22;479;53.514;9.994;2023-07-13T00:55:56;16.40;99.90
981;DHT22;479;53.514;9.994;2023-07-13T00:58:26;16.40;99.90
981;DHT22;479;53.514;9.994;2023-07-13T01:00:53;16.40;99.90
981;DHT22;479;53.514;9.994;2023-07-13T01:03:20;16.30;99.90
981;DHT22;479;53.514;9.994;2023-07-13T01:05:49;16.30;99.90
981;DHT22;479;53.514;9.994;2023-07-13T01:08:17;16.20;99.90
981;DHT22;479;53.514;9.994;2023-07-13T01:10:51;16.30;99.90
981;DHT22;479;53.514;9.994;2023-07-13T01:13:19;16.20;99.90
981;DHT22;479;53.514;9.994;2023-07-13T01:15:49;16.20;99.90
981;DHT22;479;53.514;9.994;2023-07-13T01:18:19;16.20;99.90
981;DHT22;479;53.514;9.994;2023-07-13T01:20:51;16.20;99.90
981;DHT22;479;53.514;9.994;2023-07-13T01:23:18;16.20;99.90
981;DHT22;479;53.514;9.994;2023-07-13T01:25:45;16.20;99.90
981;DHT22;479;53.514;9.994;2023-07-13T01:28:13;16.20;99.90
981;DHT22;479;53.514;9.994;2023-07-13T01:30:40;16.20;99.90
981;DHT22;479;53.514;9.994;2023-07-13T01:33:07;16.20;99.90
981;DHT22;479;53.514;9.994;2023-07-13T01:35:35;16.20;99.90
981;DHT22;479;53.514;9.994;2023-07-13T01:38:04;16.20;99.90
981;DHT22;479;53.514;9.994;2023-07-13T01:41:08;16.20;99.90
981;DHT22;479;53.514;9.994;2023-07-13T01:43:35;16.10;99.90
981;DHT22;479;53.514;9.994;2023-07-13T01:46:02;16.10;99.90
981;DHT22;479;53.514;9.994;2023-07-13T01:48:29;16.10;99.90
981;DHT22;479;53.514;9.994;2023-07-13T01:50:55;16.10;99.90
981;DHT22;479;53.514;9.994;2023-07-13T01:53:24;16.10;99.90
981;DHT22;479;53.514;9.994;2023-07-13T01:55:50;16.10;99.90
981;DHT22;479;53.514;9.994;2023-07-13T01:58:17;16.00;99.90
981;DHT22;479;53.514;9.994;2023-07-13T02:00:47;16.10;99.90
981;DHT22;479;53.514;9.994;2023-07-13T02:03:14;16.10;99.90
981;DHT22;479;53.514;9.994;2023-07-13T02:05:43;16.00;99.90
981;DHT22;479;53.514;9.994;2023-07-13T02:08:10;16.00;99.90
981;DHT22;479;53.514;9.994;2023-07-13T02:10:39;16.00;99.90
981;DHT22;479;53.514;9.994;2023-07-13T02:13:06;16.00;99.90
981;DHT22;479;53.514;9.994;2023-07-13T02:15:34;16.00;99.90
981;DHT22;479;53.514;9.994;2023-07-13T02:18:01;16.00;99.90
981;DHT22;479;53.514;9.994;2023-07-13T02:20:29;16.00;99.90
981;DHT22;479;53.514;9.994;2023-07-13T02:22:56;15.90;99.90
981;DHT22;479;53.514;9.994;2023-07-13T02:25:23;16.00;99.90
981;DHT22;479;53.514;9.994;2023-07-13T02:27:53;16.00;99.90
981;DHT22;479;53.514;9.994;2023-07-13T02:30:20;15.90;99.90
981;DHT22;479;53.514;9.994;2023-07-13T02:32:50;15.90;99.90
981;DHT22;479;53.514;9.994;2023-07-13T02:35:18;15.90;99.90
981;DHT22;479;53.514;9.994;2023-07-13T02:37:45;15.90;99.90
981;DHT22;479;53.514;9.994;2023-07-13T02:40:12;15.90;99.90
981;DHT22;479;53.514;9.994;2023-07-13T02:42:39;15.90;99.90
981;DHT22;479;53.514;9.994;2023-07-13T02:45:08;15.90;99.90
981;DHT22;479;53.514;9.994;2023-07-13T02:47:35;15.90;99.90
981;DHT22;479;53.514;9.994;2023-07-13T02:50:03;15.90;99.90
981;DHT22;479;53.514;9.994;2023-07-13T02:52:31;15.90;99.90
981;DHT22;479;53.514;9.994;2023-07-13T02:54:58;15.90;99.90
981;DHT22;479;53.514;9.994;2023-07-13T02:57:25;15.90;99.90
981;DHT22;479;53.514;9.994;2023-07-13T02:59:53;15.90;99.90
981;DHT22;479;53.514;9.994;2023-07-13T03:02:21;15.80;99.90
981;DHT22;479;53.514;9.994;2023-07-13T03:04:48;15.80;99.90
981;DHT22;479;53.514;9.994;2023-07-13T03:07:15;15.80;99.90
981;DHT22;479;53.514;9.994;2023-07-13T03:09:43;15.80;99.90
981;DHT22;479;53.514;9.994;2023-07-13T03:12:10;15.80;99.90
981;DHT22;479;53.514;9.994;2023-07-13T03:14:37;15.80;99.90
981;DHT22;479;53.514;9.994;2023-07-13T03:17:06;15.80;99.90
981;DHT22;479;53.514;9.994;2023-07-13T03:19:38;15.80;99.90
981;DHT22;479;53.514;9.994;2023-07-13T03:22:05;15.80;99.90
981;DHT22;479;53.514;9.994;2023-07-13T03:24:33;15.80;99.90
981;DHT22;479;53.514;9.994;2023-07-13T03:27:01;15.80;99.90
981;DHT22;479;53.514;9.994;2023-07-13T03:29:28;15.80;99.90
981;DHT22;479;53.514;9.994;2023-07-13T03:31:55;15.80;99.90
981;DHT22;479;53.514;9.994;2023-07-13T03:34:23;15.80;99.90
981;DHT22;479;53.514;9.994;2023-07-13T03:36:53;15.80;99.90
981;DHT22;479;53.514;9.994;2023-07-13T03:39:20;15.80;99.90
981;DHT22;479;53.514;9.994;2023-07-13T03:41:53;15.80;99.90
981;DHT22;479;53.514;9.994;2023-07-13T03:44:21;15.90;99.90
981;DHT22;479;53.514;9.994;2023-07-13T03:46:52;15.80;99.90
981;DHT22;479;53.514;9.994;2023-07-13T03:49:19;15.90;99.90
981;DHT22;479;53.514;9.994;2023-07-13T03:51:47;15.90;99.90
981;DHT22;479;53.514;9.994;2023-07-13T03:54:15;15.90;99.90
981;DHT22;479;53.514;9.994;2023-07-13T03:56:42;15.90;99.90
981;DHT22;479;53.514;9.994;2023-07-13T03:59:09;16.00;99.90
981;DHT22;479;53.514;9.994;2023-07-13T04:01:36;16.00;99.90
981;DHT22;479;53.514;9.994;2023-07-13T04:04:04;16.10;99.90
981;DHT22;479;53.514;9.994;2023-07-13T04:06:32;16.10;99.90
981;DHT22;479;53.514;9.994;2023-07-13T04:09:01;16.10;99.90
981;DHT22;479;53.514;9.994;2023-07-13T04:11:33;16.10;99.90
981;DHT22;479;53.514;9.994;2023-07-13T04:14:02;16.20;99.90
981;DHT22;479;53.514;9.994;2023-07-13T04:16:29;16.20;99.90
981;DHT22;479;53.514;9.994;2023-07-13T04:18:56;16.20;99.90
981;DHT22;479;53.514;9.994;2023-07-13T04:21:25;16.20;99.90
981;DHT22;479;53.514;9.994;2023-07-13T04:23:53;16.20;99.90
981;DHT22;479;53.514;9.994;2023-07-13T04:26:20;16.20;99.90
981;DHT22;479;53.514;9.994;2023-07-13T04:28:49;16.20;99.90
981;DHT22;479;53.514;9.994;2023-07-13T04:31:17;16.20;99.90
981;DHT22;479;53.514;9.994;2023-07-13T04:33:44;16.30;99.90
981;DHT22;479;53.514;9.994;2023-07-13T04:36:11;16.30;99.90
981;DHT22;479;53.514;9.994;2023-07-13T04:38:38;16.30;99.90
981;DHT22;479;53.514;9.994;2023-07-13T04:41:06;16.30;99.90
981;DHT22;479;53.514;9.994;2023-07-13T04:43:34;16.40;99.90
981;DHT22;479;53.514;9.994;2023-07-13T04:46:08;16.40;99.90
981;DHT22;479;53.514;9.994;2023-07-13T04:48:37;16.40;99.90
981;DHT22;479;53.514;9.994;2023-07-13T04:51:04;16.50;99.90
981;DHT22;479;53.514;9.994;2023-07-13T04:53:32;16.50;99.90
981;DHT22;479;53.514;9.994;2023-07-13T04:56:00;16.60;99.90
981;DHT22;479;53.514;9.994;2023-07-13T04:58:28;16.70;99.90
981;DHT22;479;53.514;9.994;2023-07-13T05:00:59;16.70;99.90
981;DHT22;479;53.514;9.994;2023-07-13T05:03:28;16.80;99.90
981;DHT22;479;53.514;9.994;2023-07-13T05:05:56;16.90;99.90
981;DHT22;479;53.514;9.994;2023-07-13T05:08:23;17.00;99.90
981;DHT22;479;53.514;9.994;2023-07-13T05:10:50;17.10;99.90
981;DHT22;479;53.514;9.994;2023-07-13T05:13:17;17.20;99.90
981;DHT22;479;53.514;9.994;2023-07-13T05:15:45;17.30;99.90
981;DHT22;479;53.514;9.994;2023-07-13T05:18:12;17.30;99.90
981;DHT22;479;53.514;9.994;2023-07-13T05:20:40;17.40;99.90
981;DHT22;479;53.514;9.994;2023-07-13T05:23:07;17.50;99.90
981;DHT22;479;53.514;9.994;2023-07-13T05:25:34;17.70;99.90
981;DHT22;479;53.514;9.994;2023-07-13T05:28:00;17.70;99.90
981;DHT22;479;53.514;9.994;2023-07-13T05:30:27;17.90;99.90
981;DHT22;479;53.514;9.994;2023-07-13T05:32:54;17.90;99.90
981;DHT22;479;53.514;9.994;2023-07-13T05:35:21;17.80;99.90
981;DHT22;479;53.514;9.994;2023-07-13T05:37:49;17.60;99.90
981;DHT22;479;53.514;9.994;2023-07-13T05:40:16;17.50;99.90
981;DHT22;479;53.514;9.994;2023-07-13T05:42:43;17.50;99.90
981;DHT22;479;53.514;9.994;2023-07-13T05:45:10;17.50;99.90
981;DHT22;479;53.514;9.994;2023-07-13T05:47:37;17.60;99.90
981;DHT22;479;53.514;9.994;2023-07-13T05:50:05;17.50;99.90
981;DHT22;479;53.514;9.994;2023-07-13T05:52:32;17.40;99.90
981;DHT22;479;53.514;9.994;2023-07-13T05:55:01;17.50;99.90
981;DHT22;479;53.514;9.994;2023-07-13T05:57:30;17.50;99.90
981;DHT22;479;53.514;9.994;2023-07-13T05:59:57;17.60;99.90
981;DHT22;479;53.514;9.994;2023-07-13T06:02:24;17.50;99.90
981;DHT22;479;53.514;9.994;2023-07-13T06:04:52;17.50;99.90
981;DHT22;479;53.514;9.994;2023-07-13T06:07:19;17.60;99.90
981;DHT22;479;53.514;9.994;2023-07-13T06:09:46;17.60;99.90
981;DHT22;479;53.514;9.994;2023-07-13T06:12:14;17.70;99.90
981;DHT22;479;53.514;9.994;2023-07-13T06:14:41;17.60;99.90
981;DHT22;479;53.514;9.994;2023-07-13T06:17:08;17.60;99.90
981;DHT22;479;53.514;9.994;2023-07-13T06:19:35;17.60;99.90
981;DHT22;479;53.514;9.994;2023-07-13T06:22:02;17.60;99.90
981;DHT22;479;53.514;9.994;2023-07-13T06:24:29;17.60;99.90
981;DHT22;479;53.514;9.994;2023-07-13T06:26:56;17.60;99.90
981;DHT22;479;53.514;9.994;2023-07-13T06:29:24;17.60;99.90
981;DHT22;479;53.514;9.994;2023-07-13T06:31:51;17.70;99.90
981;DHT22;479;53.514;9.994;2023-07-13T06:34:18;17.80;99.90
981;DHT22;479;53.514;9.994;2023-07-13T06:36:44;17.90;99.90
981;DHT22;479;53.514;9.994;2023-07-13T06:39:11;17.90;99.90
981;DHT22;479;53.514;9.994;2023-07-13T06:41:38;17.90;99.90
981;DHT22;479;53.514;9.994;2023-07-13T06:44:09;18.00;99.90
981;DHT22;479;53.514;9.994;2023-07-13T06:46:38;18.10;99.90
981;DHT22;479;53.514;9.994;2023-07-13T06:49:04;18.10;99.90
981;DHT22;479;53.514;9.994;2023-07-13T06:51:32;18.00;99.90
981;DHT22;479;53.514;9.994;2023-07-13T06:53:58;18.10;99.90
981;DHT22;479;53.514;9.994;2023-07-13T06:56:25;18.10;99.90
981;DHT22;479;53.514;9.994;2023-07-13T06:58:52;18.10;99.90
981;DHT22;479;53.514;9.994;2023-07-13T07:01:19;18.20;99.90
981;DHT22;479;53.514;9.994;2023-07-13T07:03:47;18.30;99.90
981;DHT22;479;53.514;9.994;2023-07-13T07:06:16;18.30;99.90
981;DHT22;479;53.514;9.994;2023-07-13T07:08:44;18.40;99.90
981;DHT22;479;53.514;9.994;2023-07-13T07:11:13;18.50;99.90
981;DHT22;479;53.514;9.994;2023-07-13T07:13:40;18.50;99.90
981;DHT22;479;53.514;9.994;2023-07-13T07:16:07;18.50;99.90
981;DHT22;479;53.514;9.994;2023-07-13T07:18:34;18.70;99.90
981;DHT22;479;53.514;9.994;2023-07-13T07:21:03;18.60;99.90
981;DHT22;479;53.514;9.994;2023-07-13T07:23:30;18.60;99.90
981;DHT22;479;53.514;9.994;2023-07-13T07:25:56;18.80;99.90
981;DHT22;479;53.514;9.994;2023-07-13T07:28:23;19.20;99.90
981;DHT22;479;53.514;9.994;2023-07-13T07:30:53;19.40;99.90
981;DHT22;479;53.514;9.994;2023-07-13T07:33:20;19.40;99.90
981;DHT22;479;53.514;9.994;2023-07-13T07:35:48;19.20;99.90
981;DHT22;479;53.514;9.994;2023-07-13T07:38:16;19.20;99.90
981;DHT22;479;53.514;9.994;2023-07-13T07:40:44;19.40;99.90
981;DHT22;479;53.514;9.994;2023-07-13T07:43:12;19.60;99.90
981;DHT22;479;53.514;9.994;2023-07-13T07:45:39;19.80;99.90
981;DHT22;479;53.514;9.994;2023-07-13T07:48:07;19.90;99.90
981;DHT22;479;53.514;9.994;2023-07-13T07:50:35;20.00;99.90
981;DHT22;479;53.514;9.994;2023-07-13T07:53:04;20.10;99.90
981;DHT22;479;53.514;9.994;2023-07-13T07:55:34;20.10;99.90
981;DHT22;479;53.514;9.994;2023-07-13T07:58:02;20.50;99.90
981;DHT22;479;53.514;9.994;2023-07-13T08:00:29;20.80;99.90
981;DHT22;479;53.514;9.994;2023-07-13T08:02:57;20.90;99.90
981;DHT22;479;53.514;9.994;2023-07-13T08:05:24;21.00;99.90
981;DHT22;479;53.514;9.994;2023-07-13T08:07:51;20.90;99.90
981;DHT22;479;53.514;9.994;2023-07-13T08:10:18;21.00;99.90
981;DHT22;479;53.514;9.994;2023-07-13T08:12:47;20.90;99.90
981;DHT22;479;53.514;9.994;2023-07-13T08:15:16;21.30;99.90
981;DHT22;479;53.514;9.994;2023-07-13T08:17:43;21.40;99.90
981;DHT22;479;53.514;9.994;2023-07-13T08:20:10;21.20;99.90
981;DHT22;479;53.514;9.994;2023-07-13T08:22:37;21.30;99.90
981;DHT22;479;53.514;9.994;2023-07-13T08:25:05;21.40;99.90
981;DHT22;479;53.514;9.994;2023-07-13T08:27:34;21.70;99.90
981;DHT22;479;53.514;9.994;2023-07-13T08:30:04;22.10;99.90
981;DHT22;479;53.514;9.994;2023-07-13T08:32:31;22.30;99.90
981;DHT22;479;53.514;9.994;2023-07-13T08:34:58;21.80;99.90
981;DHT22;479;53.514;9.994;2023-07-13T08:37:25;21.30;99.90
981;DHT22;479;53.514;9.994;2023-07-13T08:39:52;21.10;99.90
981;DHT22;479;53.514;9.994;2023-07-13T08:42:29;21.10;99.90
981;DHT22;479;53.514;9.994;2023-07-13T08:45:17;21.70;99.90
981;DHT22;479;53.514;9.994;2023-07-13T08:47:48;21.90;99.90
981;DHT22;479;53.514;9.994;2023-07-13T08:50:19;21.90;99.90
981;DHT22;479;53.514;9.994;2023-07-13T08:52:48;22.30;99.90
981;DHT22;479;53.514;9.994;2023-07-13T08:55:17;22.70;99.90
981;DHT22;479;53.514;9.994;2023-07-13T08:57:54;22.40;99.90
981;DHT22;479;53.514;9.994;2023-07-13T09:00:30;22.40;99.90
981;DHT22;479;53.514;9.994;2023-07-13T09:03:01;22.60;99.90
981;DHT22;479;53.514;9.994;2023-07-13T09:05:30;22.60;99.90
981;DHT22;479;53.514;9.994;2023-07-13T09:08:09;21.80;99.90
981;DHT22;479;53.514;9.994;2023-07-13T09:10:43;21.30;99.90
981;DHT22;479;53.514;9.994;2023-07-13T09:13:24;21.50;99.90
981;DHT22;479;53.514;9.994;2023-07-13T09:15:55;21.90;99.90
981;DHT22;479;53.514;9.994;2023-07-13T09:18:26;22.60;99.90
981;DHT22;479;53.514;9.994;2023-07-13T09:20:57;23.20;99.90
981;DHT22;479;53.514;9.994;2023-07-13T09:23:28;23.40;99.90
981;DHT22;479;53.514;9.994;2023-07-13T09:26:04;23.10;99.90
981;DHT22;479;53.514;9.994;2023-07-13T09:28:37;22.40;99.90
981;DHT22;479;53.514;9.994;2023-07-13T09:31:11;22.20;99.90
981;DHT22;479;53.514;9.994;2023-07-13T09:33:40;21.90;99.90
981;DHT22;479;53.514;9.994;2023-07-13T09:36:19;21.90;99.90
981;DHT22;479;53.514;9.994;2023-07-13T09:38:47;22.20;99.90
981;DHT22;479;53.514;9.994;2023-07-13T09:41:19;22.70;99.90
981;DHT22;479;53.514;9.994;2023-07-13T09:44:07;23.00;99.90
981;DHT22;479;53.514;9.994;2023-07-13T09:46:37;23.50;99.90
981;DHT22;479;53.514;9.994;2023-07-13T09:49:04;23.80;99.90
981;DHT22;479;53.514;9.994;2023-07-13T09:51:31;24.70;99.90
981;DHT22;479;53.514;9.994;2023-07-13T09:53:58;24.60;99.90
981;DHT22;479;53.514;9.994;2023-07-13T09:56:27;24.60;99.90
981;DHT22;479;53.514;9.994;2023-07-13T09:58:55;24.60;99.90
981;DHT22;479;53.514;9.994;2023-07-13T10:01:35;24.30;99.90
981;DHT22;479;53.514;9.994;2023-07-13T10:04:11;23.60;99.90
981;DHT22;479;53.514;9.994;2023-07-13T10:06:39;23.50;99.90
981;DHT22;479;53.514;9.994;2023-07-13T10:09:08;23.00;99.90
981;DHT22;479;53.514;9.994;2023-07-13T10:11:39;22.70;99.90
981;DHT22;479;53.514;9.994;2023-07-13T10:14:11;23.10;99.90
981;DHT22;479;53.514;9.994;2023-07-13T10:16:39;23.00;99.90
981;DHT22;479;53.514;9.994;2023-07-13T10:19:14;23.00;99.90
981;DHT22;479;53.514;9.994;2023-07-13T10:21:49;23.70;99.90
981;DHT22;479;53.514;9.994;2023-07-13T10:24:20;23.90;99.90
981;DHT22;479;53.514;9.994;2023-07-13T10:26:52;23.80;99.90
981;DHT22;479;53.514;9.994;2023-07-13T10:29:22;23.70;99.90
981;DHT22;479;53.514;9.994;2023-07-13T10:31:51;23.50;99.90
981;DHT22;479;53.514;9.994;2023-07-13T10:34:19;24.30;99.90
981;DHT22;479;53.514;9.994;2023-07-13T10:36:48;24.60;99.90
981;DHT22;479;53.514;9.994;2023-07-13T10:39:17;24.90;97.30
981;DHT22;479;53.514;9.994;2023-07-13T10:41:48;25.20;97.00
981;DHT22;479;53.514;9.994;2023-07-13T10:44:22;25.60;94.40
981;DHT22;479;53.514;9.994;2023-07-13T10:46:55;25.00;93.10
981;DHT22;479;53.514;9.994;2023-07-13T10:49:26;24.70;93.20
981;DHT22;479;53.514;9.994;2023-07-13T10:51:54;24.00;93.10
981;DHT22;479;53.514;9.994;2023-07-13T10:54:26;23.70;93.70
981;DHT22;479;53.514;9.994;2023-07-13T10:57:13;23.20;93.80
981;DHT22;479;53.514;9.994;2023-07-13T10:59:42;23.60;95.70
981;DHT22;479;53.514;9.994;2023-07-13T11:02:21;24.20;94.60
981;DHT22;479;53.514;9.994;2023-07-13T11:04:53;25.00;91.70
981;DHT22;479;53.514;9.994;2023-07-13T11:07:22;24.80;87.50
981;DHT22;479;53.514;9.994;2023-07-13T11:09:51;25.00;88.10
981;DHT22;479;53.514;9.994;2023-07-13T11:12:49;25.30;87.30
981;DHT22;479;53.514;9.994;2023-07-13T11:15:28;25.30;84.10
981;DHT22;479;53.514;9.994;2023-07-13T11:17:56;24.80;81.50
981;DHT22;479;53.514;9.994;2023-07-13T11:20:48;24.50;81.30
981;DHT22;479;53.514;9.994;2023-07-13T11:23:27;24.20;86.40
981;DHT22;479;53.514;9.994;2023-07-13T11:25:56;23.70;86.70
981;DHT22;479;53.514;9.994;2023-07-13T11:28:25;23.20;87.80
981;DHT22;479;53.514;9.994;2023-07-13T11:31:11;23.30;90.10
981;DHT22;479;53.514;9.994;2023-07-13T11:33:51;23.70;90.20
981;DHT22;479;53.514;9.994;2023-07-13T11:36:21;23.80;90.10
981;DHT22;479;53.514;9.994;2023-07-13T11:38:58;23.70;89.00
981;DHT22;479;53.514;9.994;2023-07-13T11:41:28;23.70;85.60
981;DHT22;479;53.514;9.994;2023-07-13T11:44:06;24.00;86.00
981;DHT22;479;53.514;9.994;2023-07-13T11:46:33;24.10;86.10
981;DHT22;479;53.514;9.994;2023-07-13T11:49:00;24.10;86.50
981;DHT22;479;53.514;9.994;2023-07-13T11:51:30;23.80;86.90
981;DHT22;479;53.514;9.994;2023-07-13T11:54:01;23.50;86.50
981;DHT22;479;53.514;9.994;2023-07-13T11:56:29;23.30;87.00
981;DHT22;479;53.514;9.994;2023-07-13T11:58:59;23.40;86.20
981;DHT22;479;53.514;9.994;2023-07-13T12:01:30;23.70;84.70
981;DHT22;479;53.514;9.994;2023-07-13T12:03:59;24.20;85.60
981;DHT22;479;53.514;9.994;2023-07-13T12:06:30;24.70;85.30
981;DHT22;479;53.514;9.994;2023-07-13T12:08:58;25.00;85.10
981;DHT22;479;53.514;9.994;2023-07-13T12:11:27;24.70;84.10
981;DHT22;479;53.514;9.994;2023-07-13T12:13:54;24.40;83.70
981;DHT22;479;53.514;9.994;2023-07-13T12:16:28;23.90;83.50
981;DHT22;479;53.514;9.994;2023-07-13T12:18:56;23.70;83.10
981;DHT22;479;53.514;9.994;2023-07-13T12:21:29;23.00;89.50
981;DHT22;479;53.514;9.994;2023-07-13T12:23:57;22.10;94.00
981;DHT22;479;53.514;9.994;2023-07-13T12:26:24;21.40;99.90
981;DHT22;479;53.514;9.994;2023-07-13T12:28:53;20.20;99.90
981;DHT22;479;53.514;9.994;2023-07-13T12:31:35;19.20;99.90
981;DHT22;479;53.514;9.994;2023-07-13T12:34:08;18.80;99.90
981;DHT22;479;53.514;9.994;2023-07-13T12:36:45;18.70;99.90
981;DHT22;479;53.514;9.994;2023-07-13T12:39:16;18.90;99.90
981;DHT22;479;53.514;9.994;2023-07-13T12:41:44;19.10;99.90
981;DHT22;479;53.514;9.994;2023-07-13T12:44:12;19.30;99.90
981;DHT22;479;53.514;9.994;2023-07-13T12:46:52;19.40;99.90
981;DHT22;479;53.514;9.994;2023-07-13T12:49:24;19.60;99.90
981;DHT22;479;53.514;9.994;2023-07-13T12:51:56;19.80;99.90
981;DHT22;479;53.514;9.994;2023-07-13T12:54:24;20.00;99.90
981;DHT22;479;53.514;9.994;2023-07-13T12:56:53;20.00;99.90
981;DHT22;479;53.514;9.994;2023-07-13T12:59:23;19.90;99.90
981;DHT22;479;53.514;9.994;2023-07-13T13:01:51;19.80;99.90
981;DHT22;479;53.514;9.994;2023-07-13T13:04:20;19.70;99.90
981;DHT22;479;53.514;9.994;2023-07-13T13:06:47;19.60;99.90
981;DHT22;479;53.514;9.994;2023-07-13T13:09:17;19.50;99.90
981;DHT22;479;53.514;9.994;2023-07-13T13:11:44;19.30;99.90
981;DHT22;479;53.514;9.994;2023-07-13T13:14:11;19.00;99.90
981;DHT22;479;53.514;9.994;2023-07-13T13:16:45;19.10;99.90
981;DHT22;479;53.514;9.994;2023-07-13T13:19:14;19.10;99.90
981;DHT22;479;53.514;9.994;2023-07-13T13:21:43;19.20;99.90
981;DHT22;479;53.514;9.994;2023-07-13T13:24:11;19.40;99.90
981;DHT22;479;53.514;9.994;2023-07-13T13:26:41;19.50;99.90
981;DHT22;479;53.514;9.994;2023-07-13T13:29:12;19.70;99.90
981;DHT22;479;53.514;9.994;2023-07-13T13:31:40;19.90;99.90
981;DHT22;479;53.514;9.994;2023-07-13T13:34:09;19.80;99.90
981;DHT22;479;53.514;9.994;2023-07-13T13:36:36;19.80;99.90
981;DHT22;479;53.514;9.994;2023-07-13T13:39:10;19.70;99.90
981;DHT22;479;53.514;9.994;2023-07-13T13:41:43;19.90;99.90
981;DHT22;479;53.514;9.994;2023-07-13T13:44:10;19.90;99.90
981;DHT22;479;53.514;9.994;2023-07-13T13:46:37;19.80;99.90
981;DHT22;479;53.514;9.994;2023-07-13T13:49:04;20.00;99.90
981;DHT22;479;53.514;9.994;2023-07-13T13:51:32;19.90;99.90
981;DHT22;479;53.514;9.994;2023-07-13T13:53:59;19.90;99.90
981;DHT22;479;53.514;9.994;2023-07-13T13:56:27;19.80;99.90
981;DHT22;479;53.514;9.994;2023-07-13T13:58:55;19.80;99.90
981;DHT22;479;53.514;9.994;2023-07-13T14:01:22;19.80;99.90
981;DHT22;479;53.514;9.994;2023-07-13T14:03:50;19.80;99.90
981;DHT22;479;53.514;9.994;2023-07-13T14:06:18;20.00;99.90
981;DHT22;479;53.514;9.994;2023-07-13T14:08:45;20.10;99.90
981;DHT22;479;53.514;9.994;2023-07-13T14:11:14;20.10;99.90
981;DHT22;479;53.514;9.994;2023-07-13T14:13:43;19.80;99.90
981;DHT22;479;53.514;9.994;2023-07-13T14:16:17;19.80;99.90
981;DHT22;479;53.514;9.994;2023-07-13T14:18:44;20.10;99.90
981;DHT22;479;53.514;9.994;2023-07-13T14:21:13;20.20;99.90
981;DHT22;479;53.514;9.994;2023-07-13T14:23:40;20.20;99.90
981;DHT22;479;53.514;9.994;2023-07-13T14:26:11;20.30;99.90
981;DHT22;479;53.514;9.994;2023-07-13T14:28:42;20.30;99.90
981;DHT22;479;53.514;9.994;2023-07-13T14:31:09;20.40;99.90
981;DHT22;479;53.514;9.994;2023-07-13T14:33:37;20.50;99.90
981;DHT22;479;53.514;9.994;2023-07-13T14:36:25;20.60;99.90
981;DHT22;479;53.514;9.994;2023-07-13T14:38:53;20.60;99.90
981;DHT22;479;53.514;9.994;2023-07-13T14:41:20;20.50;99.90
981;DHT22;479;53.514;9.994;2023-07-13T14:43:47;20.50;99.90
981;DHT22;479;53.514;9.994;2023-07-13T14:46:28;20.60;99.90
981;DHT22;479;53.514;9.994;2023-07-13T14:49:01;20.80;99.90
981;DHT22;479;53.514;9.994;2023-07-13T14:51:29;21.00;99.90
981;DHT22;479;53.514;9.994;2023-07-13T14:53:57;21.20;99.90
981;DHT22;479;53.514;9.994;2023-07-13T14:56:25;21.10;99.90
981;DHT22;479;53.514;9.994;2023-07-13T14:58:54;21.10;99.90
981;DHT22;479;53.514;9.994;2023-07-13T15:01:21;21.10;99.90
981;DHT22;479;53.514;9.994;2023-07-13T15:03:51;21.10;99.90
981;DHT22;479;53.514;9.994;2023-07-13T15:06:20;21.10;99.90
981;DHT22;479;53.514;9.994;2023-07-13T15:08:48;21.00;99.90
981;DHT22;479;53.514;9.994;2023-07-13T15:11:16;20.70;99.90
981;DHT22;479;53.514;9.994;2023-07-13T15:13:43;20.40;99.90
981;DHT22;479;53.514;9.994;2023-07-13T15:16:16;20.40;99.90
981;DHT22;479;53.514;9.994;2023-07-13T15:18:44;20.40;99.90
981;DHT22;479;53.514;9.994;2023-07-13T15:21:22;20.60;99.90
981;DHT22;479;53.514;9.994;2023-07-13T15:23:50;20.70;99.90
981;DHT22;479;53.514;9.994;2023-07-13T15:26:18;20.80;99.90
981;DHT22;479;53.514;9.994;2023-07-13T15:28:46;20.90;99.90
981;DHT22;479;53.514;9.994;2023-07-13T15:31:21;21.00;99.90
981;DHT22;479;53.514;9.994;2023-07-13T15:33:49;20.90;99.90
981;DHT22;479;53.514;9.994;2023-07-13T15:36:17;20.80;99.90
981;DHT22;479;53.514;9.994;2023-07-13T15:38:47;20.80;99.90
981;DHT22;479;53.514;9.994;2023-07-13T15:41:18;20.90;99.90
981;DHT22;479;53.514;9.994;2023-07-13T15:43:48;20.80;99.90
981;DHT22;479;53.514;9.994;2023-07-13T15:46:15;20.90;99.90
981;DHT22;479;53.514;9.994;2023-07-13T15:48:42;20.80;99.90
981;DHT22;479;53.514;9.994;2023-07-13T15:51:19;20.90;99.90
981;DHT22;479;53.514;9.994;2023-07-13T15:53:48;21.10;99.90
981;DHT22;479;53.514;9.994;2023-07-13T15:56:19;21.20;99.90
981;DHT22;479;53.514;9.994;2023-07-13T15:58:46;21.10;99.90
981;DHT22;479;53.514;9.994;2023-07-13T16:01:13;20.90;99.90
981;DHT22;479;53.514;9.994;2023-07-13T16:03:40;20.90;99.90
981;DHT22;479;53.514;9.994;2023-07-13T16:06:13;20.80;99.90
981;DHT22;479;53.514;9.994;2023-07-13T16:08:41;20.90;99.90
981;DHT22;479;53.514;9.994;2023-07-13T16:11:15;20.90;99.90
981;DHT22;479;53.514;9.994;2023-07-13T16:13:43;20.90;99.90
981;DHT22;479;53.514;9.994;2023-07-13T16:16:11;20.90;99.90
981;DHT22;479;53.514;9.994;2023-07-13T16:18:39;20.90;99.90
981;DHT22;479;53.514;9.994;2023-07-13T16:21:11;20.90;99.90
981;DHT22;479;53.514;9.994;2023-07-13T16:23:39;20.90;99.90
981;DHT22;479;53.514;9.994;2023-07-13T16:26:23;20.90;99.90
981;DHT22;479;53.514;9.994;2023-07-13T16:28:52;21.00;99.90
981;DHT22;479;53.514;9.994;2023-07-13T16:31:30;21.00;99.90
981;DHT22;479;53.514;9.994;2023-07-13T16:33:59;21.00;99.90
981;DHT22;479;53.514;9.994;2023-07-13T16:36:27;21.10;99.90
981;DHT22;479;53.514;9.994;2023-07-13T16:38:56;20.90;99.90
981;DHT22;479;53.514;9.994;2023-07-13T16:41:24;20.90;99.90
981;DHT22;479;53.514;9.994;2023-07-13T16:43:52;20.80;99.90
981;DHT22;479;53.514;9.994;2023-07-13T16:46:22;20.70;99.90
981;DHT22;479;53.514;9.994;2023-07-13T16:48:50;20.60;99.90
981;DHT22;479;53.514;9.994;2023-07-13T16:51:20;20.60;99.90